Time;durP1;ratioP1;P1;durP2;ratioP2;P2;SDS_P1;SDS_P2;PMS_P1;PMS_P2;Temp;Humidity;BMP_temperature;BMP_pressure;BME280_temperature;BME280_humidity;BME280_pressure;Samples;Min_cycle;Max_cycle;Signal;HPM_P1;HPM_P2
2023/09/28 00:00:53;;;;;;;;;8.25;8.25;;;;;26.46;100.00;100947.22;2086929;28;46816;-63
2023/09/28 00:01:53;;;;;;;;;8.80;8.80;;;;;26.43;100.00;100947.50;2094923;27;46347;-65
2023/09/28 00:02:54;;;;;;;;;9.25;9.25;;;;;26.51;100.00;100946.84;2111166;27;46477;-61
2023/09/28 00:03:54;;;;;;;;;9.75;9.75;;;;;26.50;100.00;100942.38;2113574;27;46847;-58
2023/09/28 00:04:55;;;;;;;;;9.00;9.00;;;;;26.45;100.00;100948.22;2111907;27;46210;-65
2023/09/28 00:05:57;;;;;;;;;10.80;10.80;;;;;26.49;100.00;100949.69;2103561;28;46466;-65
2023/09/28 00:06:57;;;;;;;;;13.25;11.25;;;;;26.39;100.00;100951.44;2103124;27;46269;-64
2023/09/28 00:08:00;;;;;;;;;10.75;9.75;;;;;26.52;100.00;100946.69;2103560;28;46808;-63
2023/09/28 00:09:00;;;;;;;;;10.60;10.60;;;;;26.50;100.00;100947.81;2103097;27;46949;-61
2023/09/28 00:10:01;;;;;;;;;11.00;11.00;;;;;26.46;100.00;100952.69;2111861;27;46557;-62
2023/09/28 00:11:02;;;;;;;;;8.75;8.50;;;;;26.53;100.00;100950.28;2100686;27;46701;-66
2023/09/28 00:12:02;;;;;;;;;12.75;11.25;;;;;26.52;100.00;100952.13;2103121;28;46497;-66
2023/09/28 00:13:02;;;;;;;;;38.00;32.75;;;;;26.44;100.00;100951.94;2112905;27;46213;-63
2023/09/28 00:14:04;;;;;;;;;16.50;12.00;;;;;26.37;100.00;100953.44;2111712;27;46620;-61
2023/09/28 00:15:05;;;;;;;;;11.60;10.40;;;;;26.48;100.00;100953.41;2110449;27;46755;-66
2023/09/28 00:16:05;;;;;;;;;10.50;10.50;;;;;26.44;100.00;100959.25;2108976;27;47178;-62
2023/09/28 00:17:08;;;;;;;;;18.00;17.25;;;;;26.42;100.00;100955.75;2112406;27;46273;-64
2023/09/28 00:18:08;;;;;;;;;10.00;10.00;;;;;26.33;100.00;100960.13;2112478;27;46780;-64
2023/09/28 00:19:08;;;;;;;;;11.50;11.25;;;;;26.39;100.00;100959.63;2112760;27;46527;-62
2023/09/28 00:20:17;;;;;;;;;9.25;9.25;;;;;26.29;100.00;100961.34;2111895;27;46595;-64
2023/09/28 00:21:17;;;;;;;;;9.60;9.00;;;;;26.27;100.00;100949.72;2113000;27;47203;-65
2023/09/28 00:22:18;;;;;;;;;10.67;9.00;;;;;26.39;100.00;100948.72;2112478;27;46401;-63
2023/09/28 00:23:18;;;;;;;;;9.00;9.00;;;;;26.37;100.00;100954.31;2112547;27;46466;-65
2023/09/28 00:24:19;;;;;;;;;10.33;10.33;;;;;26.26;100.00;100956.16;2108526;27;46608;-59
2023/09/28 00:25:21;;;;;;;;;13.25;12.50;;;;;26.32;100.00;100951.09;2111495;27;46357;-63
2023/09/28 00:26:22;;;;;;;;;8.75;8.75;;;;;26.20;100.00;100963.00;2110151;27;46654;-64
2023/09/28 00:27:22;;;;;;;;;10.00;10.00;;;;;26.15;100.00;100956.19;2111587;27;46845;-65
2023/09/28 00:28:22;;;;;;;;;9.00;9.00;;;;;26.14;100.00;100957.19;2111342;27;46272;-59
2023/09/28 00:29:23;;;;;;;;;12.00;12.00;;;;;26.09;100.00;100957.56;2112250;27;46231;-62
2023/09/28 00:30:26;;;;;;;;;10.00;10.00;;;;;26.11;100.00;100951.00;2111399;27;46659;-65
2023/09/28 00:31:26;;;;;;;;;13.00;12.00;;;;;26.09;100.00;100963.00;2112757;27;46657;-62
2023/09/28 00:32:26;;;;;;;;;12.00;12.00;;;;;26.10;100.00;100962.88;2112134;27;46429;-63
2023/09/28 00:33:27;;;;;;;;;17.00;17.00;;;;;26.13;100.00;100967.19;2111978;27;46236;-62
2023/09/28 00:34:27;;;;;;;;;9.00;8.67;;;;;26.09;100.00;100961.16;2112151;27;45167;-63
2023/09/28 00:35:27;;;;;;;;;16.00;16.00;;;;;26.11;100.00;100972.78;2110820;27;46635;-62
2023/09/28 00:36:28;;;;;;;;;7.50;7.50;;;;;26.28;100.00;100967.78;2103849;27;46318;-64
2023/09/28 00:37:28;;;;;;;;;9.00;9.00;;;;;26.30;100.00;100971.25;2105026;27;46189;-64
2023/09/28 00:38:28;;;;;;;;;12.33;11.00;;;;;26.35;100.00;100980.75;2110089;27;46504;-65
2023/09/28 00:39:29;;;;;;;;;15.75;13.75;;;;;26.33;100.00;100980.03;2112985;27;46812;-61
2023/09/28 00:40:32;;;;;;;;;14.75;12.50;;;;;26.33;100.00;100985.47;2112216;27;46904;-65
2023/09/28 00:41:33;;;;;;;;;20.20;19.20;;;;;26.25;100.00;100985.22;2112117;27;46769;-63
2023/09/28 00:42:33;;;;;;;;;17.50;16.50;;;;;26.11;100.00;100988.22;2111574;27;46689;-65
2023/09/28 00:43:34;;;;;;;;;11.75;11.25;;;;;26.26;100.00;100988.81;2113339;27;46565;-62
2023/09/28 00:44:34;;;;;;;;;9.75;9.00;;;;;26.16;100.00;100996.00;2111160;27;46357;-62
2023/09/28 00:45:37;;;;;;;;;8.67;8.67;;;;;26.07;100.00;100992.22;2113080;27;46191;-62
2023/09/28 00:46:37;;;;;;;;;8.75;8.50;;;;;26.25;100.00;100996.13;2111760;27;45232;-66
2023/09/28 00:47:38;;;;;;;;;10.67;10.67;;;;;26.37;100.00;100992.41;2113147;27;46398;-60
2023/09/28 00:48:51;;;;;;;;;12.00;11.75;;;;;26.13;100.00;100998.97;2110766;27;46573;-62
2023/09/28 00:49:52;;;;;;;;;12.00;11.25;;;;;26.23;100.00;101002.69;2109714;27;46734;-64
2023/09/28 00:50:53;;;;;;;;;10.00;9.75;;;;;26.28;100.00;100998.56;2111343;27;46428;-63
2023/09/28 00:51:54;;;;;;;;;10.25;9.50;;;;;26.34;100.00;101002.66;2103396;28;46574;-61
2023/09/28 00:52:58;;;;;;;;;12.25;12.00;;;;;26.40;100.00;101004.88;2101206;28;46833;-63
2023/09/28 00:54:11;;;;;;;;;9.75;9.00;;;;;26.27;100.00;101012.31;2108263;27;45108;-60
2023/09/28 00:55:15;;;;;;;;;10.25;9.00;;;;;26.20;100.00;101008.38;2113187;27;46805;-64
2023/09/28 00:56:17;;;;;;;;;8.00;7.00;;;;;25.97;100.00;101004.81;2104366;27;46721;-64
2023/09/28 00:57:17;;;;;;;;;8.75;8.75;;;;;26.10;100.00;101005.53;2105570;27;46915;-63
2023/09/28 00:58:23;;;;;;;;;11.00;11.00;;;;;26.13;100.00;101007.13;2111348;27;46623;-62
2023/09/28 00:59:23;;;;;;;;;8.25;8.25;;;;;26.09;100.00;101003.81;2112782;27;46616;-64
2023/09/28 01:00:29;;;;;;;;;11.67;10.00;;;;;26.14;100.00;100993.41;2111717;27;46240;-62
2023/09/28 01:01:31;;;;;;;;;8.75;8.50;;;;;26.09;100.00;100993.81;2114419;27;46563;-64
2023/09/28 01:02:31;;;;;;;;;10.00;9.50;;;;;26.20;100.00;100997.50;2112928;27;47089;-64
2023/09/28 01:03:31;;;;;;;;;10.67;9.33;;;;;25.90;100.00;101009.00;2112672;27;46645;-64
2023/09/28 01:04:32;;;;;;;;;8.67;8.00;;;;;26.07;100.00;101003.09;2112952;27;46238;-65
2023/09/28 01:05:33;;;;;;;;;8.00;8.00;;;;;26.14;100.00;101011.59;2114236;27;46282;-65
2023/09/28 01:06:35;;;;;;;;;8.25;8.25;;;;;26.30;100.00;100999.34;2113376;27;45455;-61
2023/09/28 01:07:35;;;;;;;;;10.25;7.75;;;;;26.26;100.00;100996.97;2114027;27;46480;-65
2023/09/28 01:08:36;;;;;;;;;8.00;8.00;;;;;26.19;100.00;100995.78;2112907;27;46251;-64
2023/09/28 01:09:36;;;;;;;;;7.00;7.00;;;;;26.16;100.00;100987.84;2113783;27;46456;-65
2023/09/28 01:10:38;;;;;;;;;9.00;7.33;;;;;26.22;100.00;100987.34;2112597;27;46963;-62
2023/09/28 01:11:40;;;;;;;;;7.00;7.00;;;;;26.10;100.00;100992.81;2113335;27;46523;-61
2023/09/28 01:12:41;;;;;;;;;6.00;6.00;;;;;26.11;100.00;100989.09;2111206;27;46371;-65
2023/09/28 01:13:41;;;;;;;;;9.00;8.00;;;;;26.31;100.00;100979.28;2114043;27;46514;-64
2023/09/28 01:14:42;;;;;;;;;10.00;8.00;;;;;26.30;100.00;100983.00;2111975;27;46631;-65
2023/09/28 01:15:46;;;;;;;;;6.75;6.75;;;;;26.22;100.00;100971.88;2110733;27;47222;-64
2023/09/28 01:16:47;;;;;;;;;6.75;6.75;;;;;26.15;100.00;100965.22;2107213;27;46697;-65
2023/09/28 01:17:48;;;;;;;;;7.50;7.00;;;;;26.23;100.00;100970.91;2095629;28;46481;-63
2023/09/28 01:18:48;;;;;;;;;8.67;8.67;;;;;26.18;100.00;100966.84;2093278;28;46357;-65
2023/09/28 01:19:48;;;;;;;;;7.67;7.00;;;;;26.08;100.00;100962.16;2114629;27;46234;-65
2023/09/28 01:20:51;;;;;;;;;8.00;8.00;;;;;26.06;100.00;100964.13;2111893;27;46264;-62
2023/09/28 01:21:52;;;;;;;;;8.50;8.50;;;;;26.16;100.00;100958.78;2114411;27;46451;-64
2023/09/28 01:22:53;;;;;;;;;8.00;8.00;;;;;26.13;100.00;100959.03;2111983;27;46830;-65
2023/09/28 01:23:54;;;;;;;;;6.50;6.50;;;;;26.15;100.00;100957.06;2114136;27;46987;-63
2023/09/28 01:24:54;;;;;;;;;9.33;8.67;;;;;26.10;100.00;100956.59;2107578;27;46604;-65
2023/09/28 01:25:54;;;;;;;;;7.33;7.33;;;;;26.10;100.00;100957.44;2114234;27;46494;-64
2023/09/28 01:26:55;;;;;;;;;7.67;7.67;;;;;26.13;100.00;100969.06;2112109;27;46460;-64
2023/09/28 01:27:55;;;;;;;;;9.00;6.67;;;;;26.14;100.00;100973.50;2114681;27;46700;-59
2023/09/28 01:28:56;;;;;;;;;11.00;11.00;;;;;26.16;100.00;100972.38;2112123;27;46331;-64
2023/09/28 01:29:57;;;;;;;;;10.50;10.00;;;;;26.16;100.00;100972.38;2113469;27;46681;-62
2023/09/28 01:30:57;;;;;;;;;8.67;8.00;;;;;26.16;100.00;100971.53;2112066;27;46308;-61
2023/09/28 01:31:58;;;;;;;;;7.33;7.00;;;;;26.31;100.00;100983.88;2114167;27;46346;-60
2023/09/28 01:32:58;;;;;;;;;8.00;8.00;;;;;26.33;100.00;100984.59;2112436;27;46943;-64
2023/09/28 01:33:59;;;;;;;;;8.00;8.00;;;;;26.27;100.00;100991.41;2113217;27;46460;-58
2023/09/28 01:34:59;;;;;;;;;13.00;11.67;;;;;26.27;100.00;100993.25;2112612;27;46741;-64
2023/09/28 01:35:59;;;;;;;;;10.00;9.00;;;;;26.21;100.00;100991.06;2101361;28;46371;-63
2023/09/28 01:37:00;;;;;;;;;7.50;5.25;;;;;26.15;100.00;100991.56;2104645;28;46717;-63
2023/09/28 01:38:21;;;;;;;;;7.33;7.33;;;;;26.15;100.00;100989.69;2111192;27;46191;-65
2023/09/28 01:39:22;;;;;;;;;8.75;8.00;;;;;26.04;100.00;100993.31;2111414;27;46677;-62
2023/09/28 01:40:22;;;;;;;;;6.00;6.00;;;;;26.06;100.00;100990.47;2112518;27;46027;-64
2023/09/28 01:41:22;;;;;;;;;8.00;7.33;;;;;26.04;100.00;100995.16;2112488;27;46779;-63
2023/09/28 01:42:23;;;;;;;;;7.00;7.00;;;;;26.04;100.00;100998.78;2112775;27;46362;-63
2023/09/28 01:43:23;;;;;;;;;6.00;6.00;;;;;26.08;100.00;101002.94;2113268;27;46398;-65
2023/09/28 01:44:23;;;;;;;;;5.33;5.33;;;;;26.10;100.00;100998.25;2112521;27;46262;-65
2023/09/28 01:45:25;;;;;;;;;7.33;6.33;;;;;26.10;100.00;101000.97;2113068;27;46887;-63
2023/09/28 01:46:25;;;;;;;;;5.00;5.00;;;;;26.09;100.00;100999.25;2112100;27;46492;-64
2023/09/28 01:47:25;;;;;;;;;6.33;6.33;;;;;25.97;100.00;101008.41;2112011;27;46696;-64
2023/09/28 01:48:25;;;;;;;;;7.33;7.00;;;;;26.15;100.00;101011.47;2112513;27;46354;-64
2023/09/28 01:49:26;;;;;;;;;9.00;8.00;;;;;26.07;100.00;101009.38;2113801;27;46297;-64
2023/09/28 01:50:26;;;;;;;;;6.33;6.33;;;;;26.15;100.00;101005.16;2112161;27;46497;-63
2023/09/28 01:51:26;;;;;;;;;4.00;4.00;;;;;26.11;100.00;101008.13;2113582;27;46254;-63
2023/09/28 01:52:27;;;;;;;;;6.67;6.67;;;;;26.06;100.00;101006.81;2102695;27;46095;-62
2023/09/28 01:53:27;;;;;;;;;7.00;7.00;;;;;26.00;100.00;101005.44;2101063;28;46247;-62
2023/09/28 01:54:27;;;;;;;;;5.67;5.67;;;;;25.96;100.00;101011.25;2106703;27;46415;-64
2023/09/28 01:55:28;;;;;;;;;8.00;8.00;;;;;25.88;100.00;101011.88;2113817;27;46292;-62
2023/09/28 01:56:28;;;;;;;;;7.67;7.67;;;;;25.91;100.00;101017.03;2113840;27;46650;-64
2023/09/28 01:57:29;;;;;;;;;6.67;5.00;;;;;25.96;100.00;101022.13;2114057;27;46614;-62
2023/09/28 01:58:31;;;;;;;;;7.33;5.33;;;;;26.02;100.00;101016.19;2112849;27;46733;-63
2023/09/28 01:59:31;;;;;;;;;5.25;5.25;;;;;26.02;100.00;101019.75;2113975;27;46927;-63
2023/09/28 02:00:32;;;;;;;;;7.00;7.00;;;;;26.07;100.00;101025.72;2112795;27;46321;-56
2023/09/28 02:01:32;;;;;;;;;4.00;3.33;;;;;26.12;100.00;101030.75;2112909;27;46361;-65
2023/09/28 02:02:34;;;;;;;;;5.00;5.00;;;;;26.05;100.00;101024.97;2112149;27;46297;-64
2023/09/28 02:03:34;;;;;;;;;5.00;5.00;;;;;26.08;100.00;101026.56;2112073;27;46481;-63
2023/09/28 02:04:38;;;;;;;;;6.67;6.67;;;;;26.05;100.00;101015.94;2101109;28;46474;-63
2023/09/28 02:05:38;;;;;;;;;8.25;7.00;;;;;25.93;100.00;101015.09;2104929;27;46631;-64
2023/09/28 02:06:39;;;;;;;;;8.67;7.33;;;;;25.89;100.00;101005.44;2112464;27;46529;-62
2023/09/28 02:07:39;;;;;;;;;6.67;6.67;;;;;25.96;100.00;101008.53;2114651;27;46386;-64
2023/09/28 02:08:40;;;;;;;;;7.67;7.67;;;;;26.03;100.00;101009.75;2112142;27;46174;-64
2023/09/28 02:09:40;;;;;;;;;5.50;5.00;;;;;26.04;100.00;101006.94;2114827;27;46011;-65
2023/09/28 02:10:42;;;;;;;;;6.00;6.00;;;;;26.08;100.00;101010.25;2111926;27;46258;-62
2023/09/28 02:11:43;;;;;;;;;6.75;6.75;;;;;26.13;100.00;101015.31;2113798;27;46881;-62
2023/09/28 02:12:44;;;;;;;;;5.50;5.50;;;;;26.16;100.00;101012.31;2110696;27;46993;-63
2023/09/28 02:13:44;;;;;;;;;7.33;7.33;;;;;26.17;100.00;101008.59;2114128;27;46718;-64
2023/09/28 02:14:44;;;;;;;;;5.67;5.67;;;;;26.04;100.00;101017.81;2112317;27;47054;-61
2023/09/28 02:15:45;;;;;;;;;5.33;5.33;;;;;26.05;100.00;101014.09;2111101;27;46585;-62
2023/09/28 02:16:45;;;;;;;;;7.00;7.00;;;;;25.93;100.00;101025.97;2111509;27;45921;-60
2023/09/28 02:17:46;;;;;;;;;5.00;5.00;;;;;25.99;100.00;101020.03;2113434;27;46435;-64
2023/09/28 02:18:46;;;;;;;;;5.00;5.00;;;;;26.03;100.00;101023.34;2110973;27;46246;-64
2023/09/28 02:19:47;;;;;;;;;4.67;4.67;;;;;26.07;100.00;101020.28;2112438;27;46859;-61
2023/09/28 02:20:49;;;;;;;;;5.50;5.50;;;;;26.03;100.00;101016.03;2111537;27;46453;-64
2023/09/28 02:21:51;;;;;;;;;8.00;5.00;;;;;26.00;100.00;101010.00;2113405;27;46332;-63
2023/09/28 02:22:54;;;;;;;;;6.50;6.50;;;;;26.00;100.00;101010.00;2112242;27;47133;-61
2023/09/28 02:23:54;;;;;;;;;6.00;6.00;;;;;26.03;100.00;101010.59;2114006;27;46567;-65
2023/09/28 02:24:55;;;;;;;;;6.00;5.50;;;;;26.08;100.00;101007.53;2112032;27;46086;-61
2023/09/28 02:25:57;;;;;;;;;7.00;6.00;;;;;26.00;100.00;101007.28;2113389;27;46677;-59
2023/09/28 02:26:58;;;;;;;;;6.00;6.00;;;;;26.00;100.00;101010.00;2112629;27;46375;-61
2023/09/28 02:27:58;;;;;;;;;5.00;5.00;;;;;26.01;100.00;101011.72;2112624;27;46366;-63
2023/09/28 02:28:58;;;;;;;;;7.33;7.33;;;;;25.96;100.00;101017.56;2113308;27;46838;-64
2023/09/28 02:29:59;;;;;;;;;7.00;5.33;;;;;25.98;100.00;101020.16;2113518;27;46416;-61
2023/09/28 02:31:08;;;;;;;;;7.33;5.00;;;;;25.94;100.00;101018.69;2112589;27;46599;-64
2023/09/28 02:32:09;;;;;;;;;7.00;7.00;;;;;25.90;100.00;101022.59;2112429;27;47093;-62
2023/09/28 02:33:10;;;;;;;;;6.00;5.33;;;;;26.02;100.00;101014.31;2113801;27;46398;-63
2023/09/28 02:34:11;;;;;;;;;7.00;7.00;;;;;25.98;100.00;101018.28;2113299;27;46922;-64
2023/09/28 02:35:14;;;;;;;;;5.33;4.67;;;;;26.03;100.00;101018.75;2110686;27;46272;-65
2023/09/28 02:36:14;;;;;;;;;5.50;5.50;;;;;26.05;100.00;101019.53;2111327;27;46394;-64
2023/09/28 02:37:15;;;;;;;;;6.00;6.00;;;;;26.06;100.00;101017.69;2113705;27;46360;-59
2023/09/28 02:38:15;;;;;;;;;4.33;4.33;;;;;26.18;100.00;101018.53;2109144;27;46248;-61
2023/09/28 02:39:15;;;;;;;;;4.33;4.33;;;;;26.11;100.00;101019.00;2112467;27;46646;-64
2023/09/28 02:40:17;;;;;;;;;7.00;5.67;;;;;26.09;100.00;101020.13;2112720;27;46425;-63
2023/09/28 02:41:18;;;;;;;;;6.25;6.00;;;;;25.99;100.00;101020.03;2112539;27;46355;-64
2023/09/28 02:42:19;;;;;;;;;6.00;5.50;;;;;26.01;100.00;101011.72;2112356;27;46309;-63
2023/09/28 02:43:19;;;;;;;;;6.00;5.00;;;;;26.03;100.00;101016.03;2112934;27;46122;-61
2023/09/28 02:44:19;;;;;;;;;7.00;7.00;;;;;26.04;100.00;101011.47;2112379;27;46257;-61
2023/09/28 02:45:19;;;;;;;;;5.67;4.00;;;;;26.00;100.00;101012.72;2112629;27;46522;-65
2023/09/28 02:46:20;;;;;;;;;5.00;5.00;;;;;26.05;100.00;101008.66;2112145;27;46253;-62
2023/09/28 02:47:20;;;;;;;;;5.00;4.00;;;;;26.06;100.00;101007.66;2112412;27;46387;-64
2023/09/28 02:48:20;;;;;;;;;8.00;5.00;;;;;26.05;100.00;101013.22;2112673;27;46332;-62
2023/09/28 02:49:21;;;;;;;;;7.33;5.67;;;;;26.03;100.00;101007.88;2112734;27;46000;-63
2023/09/28 02:50:22;;;;;;;;;4.33;4.33;;;;;25.99;100.00;101006.41;2112569;27;46969;-64
2023/09/28 02:51:22;;;;;;;;;7.75;5.75;;;;;25.96;100.00;101017.56;2113651;27;46566;-64
2023/09/28 02:52:22;;;;;;;;;5.67;5.67;;;;;26.04;100.00;101011.47;2110361;27;46745;-61
2023/09/28 02:53:23;;;;;;;;;6.00;6.00;;;;;26.02;100.00;101006.16;2113153;27;46414;-63
2023/09/28 02:54:23;;;;;;;;;4.67;4.67;;;;;25.97;100.00;101015.69;2112290;27;46375;-65
2023/09/28 02:55:23;;;;;;;;;7.00;5.00;;;;;25.99;100.00;101005.56;2113290;27;46877;-65
2023/09/28 02:56:24;;;;;;;;;7.33;5.00;;;;;25.93;100.00;101009.66;2112425;27;46580;-62
2023/09/28 02:57:24;;;;;;;;;5.33;5.33;;;;;25.90;100.00;101009.00;2113180;27;46267;-64
2023/09/28 02:58:25;;;;;;;;;6.33;6.00;;;;;25.88;100.00;101020.03;2111930;27;46366;-65
2023/09/28 02:59:26;;;;;;;;;6.67;6.67;;;;;25.78;100.00;101014.44;2113967;27;46633;-64
2023/09/28 03:00:32;;;;;;;;;5.50;5.50;;;;;25.75;100.00;101012.00;2112726;27;46255;-63
2023/09/28 03:01:32;;;;;;;;;4.00;3.00;;;;;25.80;100.00;101019.78;2113589;27;46547;-65
2023/09/28 03:02:33;;;;;;;;;6.33;5.33;;;;;25.79;100.00;101018.94;2112464;27;46625;-63
2023/09/28 03:03:33;;;;;;;;;4.33;4.33;;;;;25.81;100.00;101019.66;2112124;27;46425;-64
2023/09/28 03:04:33;;;;;;;;;6.67;6.00;;;;;25.79;100.00;101010.78;2112016;27;46183;-65
2023/09/28 03:05:34;;;;;;;;;4.33;4.33;;;;;25.80;100.00;101020.66;2113572;27;46592;-64
2023/09/28 03:06:40;;;;;;;;;7.00;7.00;;;;;25.97;100.00;101012.97;2112030;27;46687;-63
2023/09/28 03:07:41;;;;;;;;;9.00;6.25;;;;;25.98;100.00;101020.16;2102771;28;46596;-64
2023/09/28 03:08:41;;;;;;;;;5.33;5.00;;;;;25.86;100.00;101015.69;2096269;28;46416;-61
2023/09/28 03:09:41;;;;;;;;;8.67;6.00;;;;;25.80;100.00;101025.22;2104364;28;46362;-63
2023/09/28 03:10:42;;;;;;;;;5.67;5.67;;;;;25.84;100.00;101025.84;2111873;27;46232;-63
2023/09/28 03:11:42;;;;;;;;;5.00;5.00;;;;;25.90;100.00;101025.34;2113501;27;46052;-62
2023/09/28 03:12:47;;;;;;;;;7.33;6.00;;;;;25.91;100.00;101036.09;2110959;27;46193;-62
2023/09/28 03:13:48;;;;;;;;;7.25;6.00;;;;;25.91;100.00;101032.50;2110536;27;46302;-64
2023/09/28 03:14:49;;;;;;;;;5.50;5.50;;;;;25.82;100.00;101036.84;2110928;27;46821;-62
2023/09/28 03:15:49;;;;;;;;;6.33;4.33;;;;;25.84;100.00;101031.28;2109637;27;46679;-63
2023/09/28 03:16:49;;;;;;;;;5.00;5.00;;;;;25.81;100.00;101033.25;2111312;27;46840;-66
2023/09/28 03:17:49;;;;;;;;;4.33;4.33;;;;;25.81;100.00;101030.53;2113396;27;46143;-64
2023/09/28 03:18:51;;;;;;;;;7.67;6.00;;;;;25.92;100.00;101028.78;2111645;27;46650;-63
2023/09/28 03:19:51;;;;;;;;;5.00;5.00;;;;;25.92;100.00;101036.94;2113921;27;46614;-67
2023/09/28 03:20:53;;;;;;;;;7.50;6.75;;;;;25.88;100.00;101033.63;2110617;27;46380;-60
2023/09/28 03:21:53;;;;;;;;;5.60;5.40;;;;;25.81;100.00;101030.53;2104281;28;46774;-64
2023/09/28 03:22:53;;;;;;;;;5.00;5.00;;;;;25.78;100.00;101029.91;2102923;27;46533;-64
2023/09/28 03:23:54;;;;;;;;;5.50;5.50;;;;;25.72;100.00;101025.84;2111925;27;46331;-60
2023/09/28 03:24:57;;;;;;;;;5.00;5.00;;;;;25.76;100.00;101030.03;2103662;28;46653;-61
2023/09/28 03:25:57;;;;;;;;;7.33;5.33;;;;;25.79;100.00;101029.81;2097484;27;46359;-62
2023/09/28 03:26:57;;;;;;;;;4.75;4.75;;;;;25.86;100.00;101032.00;2112892;27;46469;-64
2023/09/28 03:27:58;;;;;;;;;5.33;5.33;;;;;25.85;100.00;101030.28;2112573;27;46735;-62
2023/09/28 03:28:58;;;;;;;;;7.67;6.33;;;;;25.87;100.00;101041.91;2113060;27;46584;-62
2023/09/28 03:29:58;;;;;;;;;7.00;7.00;;;;;25.83;100.00;101035.84;2111742;27;46336;-60
2023/09/28 03:30:58;;;;;;;;;7.00;6.00;;;;;25.81;100.00;101035.97;2111849;27;46404;-64
2023/09/28 03:31:59;;;;;;;;;6.67;5.00;;;;;25.78;100.00;101040.78;2112917;27;46493;-65
2023/09/28 03:32:59;;;;;;;;;6.75;6.75;;;;;25.78;100.00;101041.63;2112433;27;46186;-63
2023/09/28 03:33:59;;;;;;;;;7.00;7.00;;;;;25.80;100.00;101049.69;2112085;27;46452;-65
2023/09/28 03:35:01;;;;;;;;;5.00;5.00;;;;;25.71;100.00;101050.44;2108581;27;46839;-65
2023/09/28 03:36:02;;;;;;;;;5.80;5.80;;;;;25.66;100.00;101048.03;2109973;27;46872;-62
2023/09/28 03:37:03;;;;;;;;;3.00;3.00;;;;;25.70;100.00;101052.28;2111861;27;46628;-64
2023/09/28 03:38:04;;;;;;;;;8.20;5.00;;;;;25.73;100.00;101054.75;2111987;27;46993;-62
2023/09/28 03:39:05;;;;;;;;;7.00;6.75;;;;;25.72;100.00;101054.88;2112240;27;46188;-62
2023/09/28 03:40:15;;;;;;;;;7.75;6.00;;;;;25.55;100.00;101056.19;2112083;27;46737;-65
2023/09/28 03:41:15;;;;;;;;;7.20;7.00;;;;;25.66;100.00;101063.47;2113758;27;46102;-60
2023/09/28 03:42:15;;;;;;;;;6.50;6.50;;;;;25.66;100.00;101063.47;2111649;27;46810;-64
2023/09/28 03:43:15;;;;;;;;;4.00;4.00;;;;;25.77;100.00;101068.94;2111918;27;46641;-66
2023/09/28 03:44:16;;;;;;;;;6.00;5.00;;;;;25.76;100.00;101070.81;2112126;27;46608;-60
2023/09/28 03:45:20;;;;;;;;;4.00;4.00;;;;;25.75;100.00;101070.94;2112192;27;46876;-63
2023/09/28 03:46:20;;;;;;;;;3.25;3.25;;;;;25.67;100.00;101062.50;2111769;27;46757;-61
2023/09/28 03:47:21;;;;;;;;;4.67;4.00;;;;;25.77;100.00;101066.22;2112160;27;46585;-63
2023/09/28 03:48:21;;;;;;;;;4.00;4.00;;;;;25.71;100.00;101077.63;2111927;27;46649;-62
2023/09/28 03:49:21;;;;;;;;;3.67;3.00;;;;;25.74;100.00;101067.34;2112264;27;46611;-64
2023/09/28 03:50:22;;;;;;;;;3.67;3.67;;;;;25.73;100.00;101075.63;2101459;28;46772;-66
2023/09/28 03:51:23;;;;;;;;;3.00;2.50;;;;;25.76;100.00;101068.09;2102716;28;46911;-63
2023/09/28 03:52:23;;;;;;;;;3.33;3.33;;;;;25.71;100.00;101072.19;2112485;27;46896;-65
2023/09/28 03:53:23;;;;;;;;;4.00;3.33;;;;;25.71;100.00;101069.47;2112193;27;46601;-64
2023/09/28 03:54:24;;;;;;;;;4.00;3.00;;;;;25.69;100.00;101071.44;2110184;27;46505;-63
2023/09/28 03:55:24;;;;;;;;;3.00;1.33;;;;;25.71;100.00;101075.75;2112157;27;46791;-63
2023/09/28 03:56:24;;;;;;;;;2.67;2.33;;;;;25.69;100.00;101071.44;2111592;27;46465;-66
2023/09/28 03:57:25;;;;;;;;;2.67;2.67;;;;;25.70;100.00;101075.88;2111659;27;46417;-66
2023/09/28 03:58:25;;;;;;;;;2.00;2.00;;;;;25.68;100.00;101075.13;2109521;27;45085;-64
2023/09/28 03:59:25;;;;;;;;;2.00;1.00;;;;;25.65;100.00;101075.34;2112013;27;46810;-61
2023/09/28 04:00:26;;;;;;;;;2.00;2.00;;;;;25.64;100.00;101071.75;2110576;27;46163;-63
2023/09/28 04:01:26;;;;;;;;;1.00;1.00;;;;;25.71;100.00;101074.91;2112185;27;46251;-65
2023/09/28 04:02:27;;;;;;;;;3.00;2.00;;;;;25.67;100.00;101073.38;2093600;28;46742;-64
2023/09/28 04:03:27;;;;;;;;;2.00;2.00;;;;;25.65;100.00;101069.91;2095702;28;46815;-63
2023/09/28 04:04:28;;;;;;;;;3.00;3.00;;;;;25.62;100.00;101081.88;2110438;27;46317;-66
2023/09/28 04:05:28;;;;;;;;;3.00;2.00;;;;;25.67;100.00;101071.53;2113335;27;46291;-63
2023/09/28 04:06:29;;;;;;;;;2.00;2.00;;;;;25.67;100.00;101066.09;2111279;27;46345;-64
2023/09/28 04:07:29;;;;;;;;;0.00;0.00;;;;;25.70;100.00;101071.31;2112610;27;46533;-64
2023/09/28 04:08:29;;;;;;;;;4.00;2.00;;;;;25.67;100.00;101074.25;2112476;27;46615;-63
2023/09/28 04:09:32;;;;;;;;;3.67;2.00;;;;;25.66;100.00;101077.91;2115902;27;46484;-64
2023/09/28 04:10:33;;;;;;;;;2.25;1.25;;;;;25.56;100.00;101071.50;2110852;27;46692;-62
2023/09/28 04:11:34;;;;;;;;;3.50;1.00;;;;;25.63;100.00;101080.03;2112220;27;46098;-61
2023/09/28 04:12:35;;;;;;;;;2.67;1.00;;;;;25.66;100.00;101071.63;2111625;27;46924;-60
2023/09/28 04:13:35;;;;;;;;;0.67;0.67;;;;;25.60;100.00;101075.72;2113078;27;46212;-64
2023/09/28 04:14:35;;;;;;;;;2.00;2.00;;;;;25.53;100.00;101072.59;2110980;27;46123;-62
2023/09/28 04:15:36;;;;;;;;;1.00;0.33;;;;;25.53;100.00;101074.44;2110637;27;46543;-60
2023/09/28 04:16:37;;;;;;;;;1.33;0.33;;;;;25.48;100.00;101065.81;2111225;27;46747;-65
2023/09/28 04:17:37;;;;;;;;;3.00;1.75;;;;;25.45;100.00;101074.19;2104887;27;46389;-64
2023/09/28 04:18:38;;;;;;;;;0.67;0.67;;;;;25.48;100.00;101076.66;2102963;27;46134;-64
2023/09/28 04:19:38;;;;;;;;;3.00;3.00;;;;;25.42;100.00;101078.03;2113108;27;46446;-64
2023/09/28 04:20:38;;;;;;;;;1.00;1.00;;;;;25.35;100.00;101075.91;2111721;27;46933;-63
2023/09/28 04:21:38;;;;;;;;;1.00;1.00;;;;;25.32;100.00;101074.28;2113215;27;46681;-65
2023/09/28 04:22:39;;;;;;;;;4.33;0.00;;;;;25.33;100.00;101077.88;2111569;27;46530;-63
2023/09/28 04:23:39;;;;;;;;;2.67;1.00;;;;;25.29;100.00;101084.53;2113204;27;46204;-65
2023/09/28 04:24:39;;;;;;;;;2.33;1.67;;;;;25.54;100.00;101087.06;2111841;27;46543;-64
2023/09/28 04:25:40;;;;;;;;;2.00;2.00;;;;;25.57;100.00;101091.41;2114591;27;46067;-64
2023/09/28 04:26:41;;;;;;;;;2.67;1.33;;;;;25.57;100.00;101077.81;2111965;27;46865;-62
2023/09/28 04:27:41;;;;;;;;;5.33;1.33;;;;;25.59;100.00;101084.84;2110858;27;46139;-62
2023/09/28 04:28:41;;;;;;;;;3.00;1.00;;;;;25.58;100.00;101085.84;2113153;27;46155;-63
2023/09/28 04:29:42;;;;;;;;;2.00;1.00;;;;;25.56;100.00;101092.38;2115360;27;46575;-64
2023/09/28 04:30:43;;;;;;;;;2.00;1.33;;;;;25.56;100.00;101095.09;2113881;27;46152;-63
2023/09/28 04:31:43;;;;;;;;;1.75;1.75;;;;;25.55;100.00;101091.53;2115125;27;46802;-64
2023/09/28 04:32:44;;;;;;;;;4.33;3.33;;;;;25.48;100.00;101095.69;2112957;27;46464;-61
2023/09/28 04:33:44;;;;;;;;;2.67;2.00;;;;;25.78;100.00;101097.88;2114498;27;46544;-66
2023/09/28 04:34:44;;;;;;;;;2.33;2.33;;;;;25.04;100.00;101105.44;2112313;27;46211;-62
2023/09/28 04:35:45;;;;;;;;;2.33;2.33;;;;;24.97;100.00;101105.97;2112405;27;46382;-64
2023/09/28 04:36:45;;;;;;;;;3.00;2.00;;;;;24.94;100.00;101109.78;2112423;27;46227;-62
2023/09/28 04:37:47;;;;;;;;;5.33;1.33;;;;;24.91;100.00;101108.19;2112249;27;46450;-63
2023/09/28 04:38:49;;;;;;;;;2.00;0.25;;;;;24.89;100.00;101110.13;2112214;27;46591;-59
2023/09/28 04:39:49;;;;;;;;;1.75;1.00;;;;;24.86;100.00;101104.06;2114362;27;46573;-62